createdAt,value
2018-04-06T00:00:48.737Z,100145
2018-04-06T00:02:52.661Z,100134
2018-04-06T00:04:56.602Z,100132
2018-04-06T00:07:00.513Z,100131
2018-04-06T00:09:03.720Z,100138
2018-04-06T00:11:07.633Z,100121
2018-04-06T00:13:11.620Z,100107
2018-04-06T00:15:14.768Z,100115
2018-04-06T00:17:17.914Z,100126
2018-04-06T00:19:21.096Z,100131
2018-04-06T00:21:25.013Z,100127
2018-04-06T00:23:29.280Z,100134
2018-04-06T00:25:32.452Z,100140
2018-04-06T00:27:35.658Z,100137
2018-04-06T00:29:38.817Z,100140
2018-04-06T00:31:42.080Z,100132
2018-04-06T00:33:46.731Z,100134
2018-04-06T00:35:50.765Z,100131
2018-04-06T00:37:54.680Z,100135
2018-04-06T00:39:58.602Z,100122
2018-04-06T00:42:01.798Z,100127
2018-04-06T00:44:04.949Z,100126
2018-04-06T00:46:08.121Z,100120
2018-04-06T00:48:11.325Z,100124
2018-04-06T00:50:15.240Z,100129
2018-04-06T00:52:18.394Z,100126
2018-04-06T00:54:21.577Z,100126
2018-04-06T00:56:25.529Z,100128
2018-04-06T00:58:28.688Z,100140
2018-04-06T01:00:31.865Z,100135
2018-04-06T01:02:35.035Z,100131
2018-04-06T01:04:38.956Z,100132
2018-04-06T01:06:42.166Z,100128
2018-04-06T01:08:46.076Z,100123
2018-04-06T01:10:49.220Z,100128
2018-04-06T01:12:52.396Z,100122
2018-04-06T01:14:55.537Z,100121
2018-04-06T01:16:58.689Z,100125
2018-04-06T01:19:01.874Z,100125
2018-04-06T01:21:05.026Z,100126
2018-04-06T01:23:08.205Z,100123
2018-04-06T01:25:11.435Z,100124
2018-04-06T01:27:14.625Z,100134
2018-04-06T01:29:17.794Z,100130
2018-04-06T01:31:21.705Z,100126
2018-04-06T01:33:26.037Z,100138
2018-04-06T01:35:30.997Z,100146
2018-04-06T01:37:35.190Z,100134
2018-04-06T01:39:39.547Z,100132
2018-04-06T01:41:46.266Z,100127
2018-04-06T01:43:49.692Z,100131
2018-04-06T01:45:53.655Z,100135
2018-04-06T01:47:59.424Z,100131
2018-04-06T01:50:04.700Z,100127
2018-04-06T01:52:09.608Z,100126
2018-04-06T01:54:14.360Z,100126
2018-04-06T01:56:19.185Z,100123
2018-04-06T01:58:24.759Z,100123
2018-04-06T02:00:28.837Z,100124
2018-04-06T02:02:32.065Z,100118
2018-04-06T02:04:35.236Z,100112
2018-04-06T02:06:38.381Z,100123
2018-04-06T02:08:41.565Z,100125
2018-04-06T02:10:45.508Z,100126
2018-04-06T02:12:48.685Z,100117
2018-04-06T02:14:52.314Z,100113
2018-04-06T02:16:56.252Z,100123
2018-04-06T02:18:59.669Z,100131
2018-04-06T02:21:02.819Z,100128
2018-04-06T02:23:05.968Z,100129
2018-04-06T02:25:09.909Z,100131
2018-04-06T02:27:13.103Z,100116
2018-04-06T02:29:17.055Z,100124
2018-04-06T02:31:20.238Z,100121
2018-04-06T02:33:24.157Z,100121
2018-04-06T02:35:28.205Z,100113
2018-04-06T02:37:31.381Z,100110
2018-04-06T02:39:34.529Z,100098
2018-04-06T02:41:37.713Z,100107
2018-04-06T02:43:41.702Z,100111
2018-04-06T02:45:45.042Z,100110
2018-04-06T02:47:48.978Z,100114
2018-04-06T02:49:54.020Z,100109
2018-04-06T02:51:57.964Z,100108
2018-04-06T02:54:01.109Z,100114
2018-04-06T02:56:04.299Z,100106
2018-04-06T02:58:07.470Z,100115
2018-04-06T03:00:11.420Z,100099
2018-04-06T03:02:14.625Z,100106
2018-04-06T03:04:17.777Z,100103
2018-04-06T03:06:20.949Z,100113
2018-04-06T03:08:24.123Z,100098
2018-04-06T03:10:28.065Z,100105
2018-04-06T03:12:31.262Z,100107
2018-04-06T03:14:35.204Z,100101
2018-04-06T03:16:38.361Z,100102
2018-04-06T03:18:41.556Z,100108
2018-04-06T03:20:44.703Z,100107
2018-04-06T03:22:48.617Z,100117
2018-04-06T03:24:51.809Z,100111
2018-04-06T03:26:54.957Z,100111
2018-04-06T03:28:58.880Z,100109
2018-04-06T03:31:02.831Z,100109
2018-04-06T03:33:06.021Z,100112
2018-04-06T03:35:09.174Z,100110
2018-04-06T03:37:12.350Z,100112
2018-04-06T03:39:15.514Z,100100
2018-04-06T03:43:26.559Z,100096
2018-04-06T03:45:29.710Z,100090
2018-04-06T03:47:32.881Z,100090
2018-04-06T03:49:36.061Z,100090
2018-04-06T03:51:39.217Z,100099
2018-04-06T03:53:42.392Z,100096
2018-04-06T03:55:46.329Z,100095
2018-04-06T03:57:50.241Z,100094
2018-04-06T03:59:54.501Z,100084
2018-04-06T04:01:57.640Z,100095
2018-04-06T04:04:00.791Z,100094
2018-04-06T04:06:04.741Z,100092
2018-04-06T04:08:07.881Z,100093
2018-04-06T04:10:11.042Z,100098
2018-04-06T04:12:17.157Z,100099
2018-04-06T04:14:22.023Z,100092
2018-04-06T04:16:25.290Z,100090
2018-04-06T04:18:28.478Z,100102
2018-04-06T04:20:32.425Z,100095
2018-04-06T04:22:36.141Z,100104
2018-04-06T04:24:39.312Z,100115
2018-04-06T04:26:42.531Z,100113
2018-04-06T04:28:46.684Z,100107
2018-04-06T04:30:50.236Z,100106
2018-04-06T04:32:53.392Z,100121
2018-04-06T04:34:57.329Z,100106
2018-04-06T04:37:00.480Z,100115
2018-04-06T04:39:03.658Z,100111
2018-04-06T04:41:06.829Z,100111
2018-04-06T04:43:11.160Z,100106
2018-04-06T04:45:15.612Z,100115
2018-04-06T04:47:18.950Z,100117
2018-04-06T04:49:22.110Z,100115
2018-04-06T04:51:25.265Z,100118
2018-04-06T04:53:28.461Z,100123
2018-04-06T04:55:31.609Z,100109
2018-04-06T04:57:34.753Z,100124
2018-04-06T04:59:38.716Z,100119
2018-04-06T05:01:41.892Z,100121
2018-04-06T05:03:45.800Z,100120
2018-04-06T05:05:48.985Z,100126
2018-04-06T05:07:53.235Z,100126
2018-04-06T05:09:57.331Z,100114
2018-04-06T05:12:00.518Z,100117
2018-04-06T05:14:03.664Z,100118
2018-04-06T05:16:07.192Z,100112
2018-04-06T05:18:10.377Z,100105
2018-04-06T05:20:13.540Z,100106
2018-04-06T05:22:17.585Z,100110
2018-04-06T05:24:20.825Z,100126
2018-04-06T05:26:24.188Z,100127
2018-04-06T05:28:28.108Z,100118
2018-04-06T05:30:33.647Z,100123
2018-04-06T05:32:38.187Z,100124
2018-04-06T05:34:41.641Z,100126
2018-04-06T05:36:44.827Z,100114
2018-04-06T05:38:48.861Z,100126
2018-04-06T05:40:52.019Z,100114
2018-04-06T05:42:55.207Z,100111
2018-04-06T05:44:58.391Z,100111
2018-04-06T05:47:02.378Z,100109
2018-04-06T05:49:05.541Z,100102
2018-04-06T05:51:08.724Z,100092
2018-04-06T05:53:12.682Z,100102
2018-04-06T05:55:15.863Z,100098
2018-04-06T05:57:19.806Z,100093
2018-04-06T05:59:22.978Z,100095
2018-04-06T06:01:26.432Z,100103
2018-04-06T06:03:29.612Z,100105
2018-04-06T06:05:33.553Z,100095
2018-04-06T06:07:36.899Z,100086
2018-04-06T06:09:40.081Z,100090
2018-04-06T06:11:43.263Z,100096
2018-04-06T06:13:47.197Z,100096
2018-04-06T06:15:51.446Z,100093
2018-04-06T06:17:55.442Z,100094
2018-04-06T06:19:59.983Z,100094
2018-04-06T06:22:03.958Z,100097
2018-04-06T06:24:07.146Z,100093
2018-04-06T06:26:13.917Z,100099
2018-04-06T06:28:18.594Z,100105
2018-04-06T06:30:23.701Z,100095
2018-04-06T06:32:28.038Z,100093
2018-04-06T06:34:33.864Z,100098
2018-04-06T06:36:37.753Z,100094
2018-04-06T06:38:40.951Z,100099
2018-04-06T06:40:45.078Z,100089
2018-04-06T06:42:49.016Z,100091
2018-04-06T06:44:52.190Z,100081
2018-04-06T06:46:55.381Z,100084
2018-04-06T06:48:59.785Z,100086
2018-04-06T06:51:03.514Z,100075
2018-04-06T06:53:08.395Z,100084
2018-04-06T06:55:13.225Z,100083
2018-04-06T06:57:17.557Z,100064
2018-04-06T06:59:21.160Z,100063
2018-04-06T07:01:25.431Z,100073
2018-04-06T07:03:29.490Z,100075
2018-04-06T07:05:32.703Z,100077
2018-04-06T07:07:35.903Z,100073
2018-04-06T07:09:39.853Z,100060
2018-04-06T07:11:43.793Z,100065
2018-04-06T07:13:47.022Z,100066
2018-04-06T07:15:50.201Z,100054
2018-04-06T07:17:54.350Z,100045
2018-04-06T07:19:59.200Z,100040
2018-04-06T07:22:02.485Z,100029
2018-04-06T07:24:05.679Z,100032
2018-04-06T07:26:08.871Z,100022
2018-04-06T07:28:12.379Z,100020
2018-04-06T07:30:16.334Z,100011
2018-04-06T07:32:19.518Z,100002
2018-04-06T07:34:24.585Z,99999
2018-04-06T07:36:28.952Z,99988
2018-04-06T07:38:32.908Z,99995
2018-04-06T07:40:36.845Z,99983
2018-04-06T07:42:40.022Z,99981
2018-04-06T07:44:43.201Z,99972
2018-04-06T07:46:46.407Z,99975
2018-04-06T07:48:49.581Z,99972
2018-04-06T07:50:54.240Z,99968
2018-04-06T07:52:58.306Z,99963
2018-04-06T07:55:01.476Z,99960
2018-04-06T07:57:05.899Z,99965
2018-04-06T07:59:09.084Z,99961
2018-04-06T08:01:13.066Z,99948
2018-04-06T08:03:16.261Z,99958
2018-04-06T08:05:19.454Z,99958
2018-04-06T08:07:23.401Z,99958
2018-04-06T08:09:26.800Z,99956
2018-04-06T08:11:31.981Z,99956
2018-04-06T08:13:37.219Z,99956
2018-04-06T08:15:40.544Z,99963
2018-04-06T08:17:43.722Z,99960
2018-04-06T08:19:47.674Z,99966
2018-04-06T08:21:50.861Z,99963
2018-04-06T08:23:54.045Z,99957
2018-04-06T08:25:58.347Z,99955
2018-04-06T08:28:02.405Z,99957
2018-04-06T08:30:06.214Z,99969
2018-04-06T08:32:09.402Z,99962
2018-04-06T08:34:12.857Z,99953
2018-04-06T08:36:17.155Z,99952
2018-04-06T08:38:22.222Z,99956
2018-04-06T08:40:27.993Z,99962
2018-04-06T08:42:33.678Z,99958
2018-04-06T08:44:37.728Z,99952
2018-04-06T08:46:40.912Z,99949
2018-04-06T08:48:45.193Z,99949
2018-04-06T08:50:48.388Z,99961
2018-04-06T08:52:51.560Z,99962
2018-04-06T08:54:55.516Z,99955
2018-04-06T08:56:58.720Z,99968
2018-04-06T08:59:01.894Z,99957
2018-04-06T09:01:05.081Z,99953
2018-04-06T09:03:10.071Z,99941
2018-04-06T09:05:13.441Z,99953
2018-04-06T09:07:16.625Z,99950
2018-04-06T09:09:20.137Z,99952
2018-04-06T09:11:23.313Z,99942
2018-04-06T09:13:28.182Z,99945
2018-04-06T09:15:31.400Z,99940
2018-04-06T09:17:34.583Z,99946
2018-04-06T09:19:38.527Z,99934
2018-04-06T09:21:41.739Z,99943
2018-04-06T09:23:44.926Z,99939
2018-04-06T09:25:48.870Z,99941
2018-04-06T09:27:52.049Z,99945
2018-04-06T09:29:56.013Z,99949
2018-04-06T09:31:59.294Z,99950
2018-04-06T09:34:03.262Z,99937
2018-04-06T09:36:06.441Z,99936
2018-04-06T09:38:09.613Z,99936
2018-04-06T09:40:12.802Z,99933
2018-04-06T09:42:16.272Z,99939
2018-04-06T09:44:19.458Z,99932
2018-04-06T09:46:23.404Z,99934
2018-04-06T09:48:26.936Z,99931
2018-04-06T09:50:30.125Z,99925
2018-04-06T09:52:34.066Z,99924
2018-04-06T09:54:37.253Z,99935
2018-04-06T09:56:41.195Z,99923
2018-04-06T09:58:48.233Z,99922
2018-04-06T10:00:56.984Z,99916
2018-04-06T10:03:00.171Z,99914
2018-04-06T10:05:03.361Z,99898
2018-04-06T10:07:06.537Z,99895
2018-04-06T10:09:10.786Z,99879
2018-04-06T10:11:14.125Z,99885
2018-04-06T10:13:17.314Z,99886
2018-04-06T10:15:20.600Z,99884
2018-04-06T10:17:24.545Z,99880
2018-04-06T10:19:27.732Z,99869
2018-04-06T10:21:31.676Z,99862
2018-04-06T10:23:34.977Z,99869
2018-04-06T10:25:38.398Z,99883
2018-04-06T10:27:41.590Z,99865
2018-04-06T10:29:45.540Z,99877
2018-04-06T10:31:49.875Z,99866
2018-04-06T10:33:53.069Z,99867
2018-04-06T10:35:56.329Z,99870
2018-04-06T10:38:00.338Z,99860
2018-04-06T10:40:03.528Z,99863
2018-04-06T10:42:06.730Z,99858
2018-04-06T10:44:10.097Z,99840
2018-04-06T10:46:13.328Z,99852
2018-04-06T10:48:17.297Z,99849
2018-04-06T10:50:20.625Z,99861
2018-04-06T10:52:23.986Z,99852
2018-04-06T10:54:27.939Z,99839
2018-04-06T10:56:31.137Z,99842
2018-04-06T10:58:34.430Z,99832
2018-04-06T11:00:37.636Z,99838
2018-04-06T11:02:41.589Z,99838
2018-04-06T11:04:44.904Z,99833
2018-04-06T11:06:48.085Z,99849
2018-04-06T11:08:52.025Z,99838
2018-04-06T11:10:55.204Z,99844
2018-04-06T11:12:59.159Z,99837
2018-04-06T11:15:02.342Z,99838
2018-04-06T11:17:06.297Z,99840
2018-04-06T11:19:09.476Z,99831
2018-04-06T11:21:14.038Z,99839
2018-04-06T11:23:17.265Z,99824
2018-04-06T11:25:20.444Z,99828
2018-04-06T11:27:24.404Z,99840
2018-04-06T11:29:27.617Z,99818
2018-04-06T11:31:31.389Z,99812
2018-04-06T11:33:35.342Z,99821
2018-04-06T11:35:38.527Z,99819
2018-04-06T11:37:42.475Z,99813
2018-04-06T11:39:45.681Z,99817
2018-04-06T11:41:48.865Z,99810
2018-04-06T11:43:52.407Z,99809
2018-04-06T11:45:55.684Z,99809
2018-04-06T11:47:58.860Z,99807
2018-04-06T11:50:02.075Z,99804
2018-04-06T11:52:05.346Z,99792
2018-04-06T11:54:08.756Z,99793
2018-04-06T11:56:11.994Z,99786
2018-04-06T11:58:15.173Z,99789
2018-04-06T12:00:19.065Z,99795
2018-04-06T12:02:22.253Z,99799
2018-04-06T12:04:25.471Z,99795
2018-04-06T12:06:28.956Z,99793
2018-04-06T12:08:32.140Z,99775
2018-04-06T12:10:35.434Z,99772
2018-04-06T12:12:39.393Z,99772
2018-04-06T12:14:42.637Z,99769
2018-04-06T12:16:45.818Z,99774
2018-04-06T12:18:48.995Z,99758
2018-04-06T12:20:52.958Z,99763
2018-04-06T12:22:56.461Z,99758
2018-04-06T12:24:59.786Z,99745
2018-04-06T12:27:04.106Z,99742
2018-04-06T12:29:07.544Z,99746
2018-04-06T12:31:10.888Z,99735
2018-04-06T12:33:14.110Z,99734
2018-04-06T12:35:18.259Z,99734
2018-04-06T12:37:21.442Z,99728
2018-04-06T12:39:25.561Z,99721
2018-04-06T12:41:30.645Z,99715
2018-04-06T12:43:33.829Z,99714
2018-04-06T12:45:37.001Z,99710
2018-04-06T12:47:40.189Z,99707
2018-04-06T12:49:43.372Z,99716
2018-04-06T12:51:47.314Z,99722
2018-04-06T12:53:50.502Z,99716
2018-04-06T12:55:54.502Z,99706
2018-04-06T12:57:57.679Z,99702
2018-04-06T13:00:00.863Z,99700
2018-04-06T13:02:04.057Z,99694
2018-04-06T13:04:08.013Z,99689
2018-04-06T13:06:11.189Z,99711
2018-04-06T13:08:15.142Z,99681
2018-04-06T13:10:18.383Z,99684
2018-04-06T13:12:21.853Z,99683
2018-04-06T13:14:25.309Z,99684
2018-04-06T13:16:28.489Z,99693
2018-04-06T13:18:32.000Z,99685
2018-04-06T13:20:35.712Z,99680
2018-04-06T13:22:38.897Z,99672
2018-04-06T13:24:42.081Z,99673
2018-04-06T13:26:45.263Z,99661
2018-04-06T13:28:48.457Z,99662
2018-04-06T13:30:51.638Z,99655
2018-04-06T13:32:55.581Z,99641
2018-04-06T13:34:58.778Z,99650
2018-04-06T13:37:02.729Z,99656
2018-04-06T13:39:05.912Z,99646
2018-04-06T13:41:09.853Z,99645
2018-04-06T13:43:13.112Z,99635
2018-04-06T13:45:16.301Z,99631
2018-04-06T13:47:19.490Z,99624
2018-04-06T13:49:23.316Z,99619
2018-04-06T13:51:26.912Z,99614
2018-04-06T13:53:30.130Z,99609
2018-04-06T13:55:33.358Z,99607
2018-04-06T13:57:36.784Z,99607
2018-04-06T13:59:40.255Z,99607
2018-04-06T14:01:43.618Z,99612
2018-04-06T14:03:47.063Z,99601
2018-04-06T14:05:50.432Z,99602
2018-04-06T14:07:53.678Z,99593
2018-04-06T14:09:56.912Z,99592
2018-04-06T14:12:00.880Z,99585
2018-04-06T14:14:04.062Z,99574
2018-04-06T14:16:07.519Z,99576
2018-04-06T14:18:10.881Z,99580
2018-04-06T14:20:14.857Z,99583
2018-04-06T14:22:19.029Z,99579
2018-04-06T14:24:28.191Z,99570
2018-04-06T14:26:31.709Z,99572
2018-04-06T14:28:34.923Z,99560
2018-04-06T14:30:38.116Z,99552
2018-04-06T14:32:42.424Z,99556
2018-04-06T14:34:45.608Z,99539
2018-04-06T14:36:48.789Z,99543
2018-04-06T14:38:52.003Z,99552
2018-04-06T14:40:55.186Z,99552
2018-04-06T14:42:58.364Z,99544
2018-04-06T14:45:02.000Z,99554
2018-04-06T14:47:05.947Z,99544
2018-04-06T14:49:09.118Z,99532
2018-04-06T14:51:12.313Z,99550
2018-04-06T14:53:15.541Z,99544
2018-04-06T14:55:18.694Z,99549
2018-04-06T14:57:22.414Z,99550
2018-04-06T14:59:25.640Z,99531
2018-04-06T15:01:28.842Z,99542
2018-04-06T15:03:32.074Z,99528
2018-04-06T15:05:35.483Z,99527
2018-04-06T15:07:38.957Z,99524
2018-04-06T15:09:42.129Z,99520
2018-04-06T15:11:45.492Z,99526
2018-04-06T15:13:48.675Z,99522
2018-04-06T15:15:53.719Z,99516
2018-04-06T15:17:57.458Z,99510
2018-04-06T15:20:07.668Z,99500
2018-04-06T15:22:14.779Z,99495
2018-04-06T15:24:19.845Z,99508
2018-04-06T15:26:23.992Z,99513
2018-04-06T15:28:27.981Z,99510
2018-04-06T15:30:31.229Z,99511
2018-04-06T15:32:35.173Z,99500
2018-04-06T15:34:38.357Z,99504
2018-04-06T15:36:42.350Z,99499
2018-04-06T15:38:46.681Z,99489
2018-04-06T15:40:49.870Z,99499
2018-04-06T15:42:53.059Z,99481
2018-04-06T15:44:56.237Z,99480
2018-04-06T15:47:01.957Z,99492
2018-04-06T15:49:06.018Z,99498
2018-04-06T15:51:10.129Z,99491
2018-04-06T15:53:13.353Z,99481
2018-04-06T15:55:16.547Z,99500
2018-04-06T15:57:19.732Z,99484
2018-04-06T15:59:22.926Z,99478
2018-04-06T16:01:27.615Z,99469
2018-04-06T16:03:31.954Z,99461
2018-04-06T16:05:35.634Z,99475
2018-04-06T16:07:38.921Z,99464
2018-04-06T16:09:42.867Z,99462
2018-04-06T16:11:46.136Z,99441
2018-04-06T16:13:51.235Z,99461
2018-04-06T16:15:54.622Z,99448
2018-04-06T16:17:58.046Z,99461
2018-04-06T16:20:01.234Z,99456
2018-04-06T16:22:05.200Z,99452
2018-04-06T16:24:08.380Z,99455
2018-04-06T16:26:12.340Z,99445
2018-04-06T16:28:15.628Z,99440
2018-04-06T16:30:18.876Z,99442
2018-04-06T16:32:22.091Z,99450
2018-04-06T16:34:25.295Z,99448
2018-04-06T16:36:29.325Z,99441
2018-04-06T16:38:32.581Z,99441
2018-04-06T16:40:36.592Z,99440
2018-04-06T16:42:39.794Z,99434
2018-04-06T16:44:43.001Z,99448
2018-04-06T16:46:46.206Z,99443
2018-04-06T16:48:49.765Z,99437
2018-04-06T16:50:52.978Z,99444
2018-04-06T16:52:56.158Z,99445
2018-04-06T16:55:00.110Z,99448
2018-04-06T16:57:03.290Z,99448
2018-04-06T16:59:07.242Z,99445
2018-04-06T17:01:10.529Z,99445
2018-04-06T17:03:14.481Z,99447
2018-04-06T17:05:17.661Z,99449
2018-04-06T17:07:21.631Z,99446
2018-04-06T17:09:24.815Z,99442
2018-04-06T17:11:28.018Z,99442
2018-04-06T17:13:33.082Z,99442
2018-04-06T17:15:36.264Z,99448
2018-04-06T17:17:40.273Z,99450
2018-04-06T17:19:43.466Z,99455
2018-04-06T17:21:46.648Z,99452
2018-04-06T17:23:49.828Z,99447
2018-04-06T17:25:53.775Z,99446
2018-04-06T17:27:57.085Z,99448
2018-04-06T17:30:00.275Z,99450
2018-04-06T17:32:04.228Z,99445
2018-04-06T17:34:07.423Z,99452
2018-04-06T17:36:10.610Z,99442
2018-04-06T17:38:14.573Z,99444
2018-04-06T17:40:17.753Z,99442
2018-04-06T17:42:22.117Z,99447
2018-04-06T17:44:25.312Z,99440
2018-04-06T17:46:28.533Z,99446
2018-04-06T17:48:31.861Z,99437
2018-04-06T17:50:35.040Z,99441
2018-04-06T17:52:38.235Z,99440
2018-04-06T17:54:42.185Z,99440
2018-04-06T17:56:45.394Z,99441
2018-04-06T17:58:48.606Z,99447
2018-04-06T18:00:51.832Z,99451
2018-04-06T18:02:55.050Z,99448
2018-04-06T18:04:58.242Z,99452
2018-04-06T18:07:01.434Z,99447
2018-04-06T18:09:05.463Z,99454
2018-04-06T18:11:08.869Z,99454
2018-04-06T18:13:12.203Z,99454
2018-04-06T18:15:15.409Z,99448
2018-04-06T18:17:18.665Z,99453
2018-04-06T18:19:21.849Z,99460
2018-04-06T18:21:25.039Z,99454
2018-04-06T18:23:28.217Z,99454
2018-04-06T18:25:32.171Z,99459
2018-04-06T18:27:35.950Z,99454
2018-04-06T18:29:39.901Z,99449
2018-04-06T18:31:44.344Z,99449
2018-04-06T18:33:47.717Z,99465
2018-04-06T18:35:50.901Z,99450
2018-04-06T18:37:55.272Z,99456
2018-04-06T18:39:59.387Z,99460
2018-04-06T18:42:02.824Z,99460
2018-04-06T18:44:06.374Z,99468
2018-04-06T18:46:09.640Z,99464
2018-04-06T18:48:13.723Z,99459
2018-04-06T18:50:17.028Z,99460
2018-04-06T18:54:21.310Z,99448
2018-04-06T18:56:24.798Z,99457
2018-04-06T18:58:28.211Z,99454
2018-04-06T19:00:31.570Z,99447
2018-04-06T19:02:34.845Z,99443
2018-04-06T19:04:38.124Z,99454
2018-04-06T19:06:42.116Z,99443
2018-04-06T19:08:46.108Z,99448
2018-04-06T19:10:49.288Z,99451
2018-04-06T19:12:53.238Z,99445
2018-04-06T19:14:56.997Z,99443
2018-04-06T19:17:00.176Z,99439
2018-04-06T19:19:03.408Z,99448
2018-04-06T19:21:06.638Z,99451
2018-04-06T19:23:09.841Z,99448
2018-04-06T19:25:13.198Z,99442
2018-04-06T19:27:17.601Z,99434
2018-04-06T19:29:20.783Z,99442
2018-04-06T19:31:23.960Z,99435
2018-04-06T19:33:27.196Z,99429
2018-04-06T19:35:31.132Z,99420
2018-04-06T19:37:34.305Z,99416
2018-04-06T19:39:37.658Z,99409
2018-04-06T19:41:40.842Z,99407
2018-04-06T19:43:44.230Z,99402
2018-04-06T19:45:47.408Z,99392
2018-04-06T19:47:51.359Z,99395
2018-04-06T19:49:54.540Z,99391
2018-04-06T19:51:57.938Z,99383
2018-04-06T19:54:01.119Z,99380
2018-04-06T19:56:04.297Z,99388
2018-04-06T19:58:07.495Z,99386
2018-04-06T20:00:11.437Z,99375
2018-04-06T20:02:14.624Z,99372
2018-04-06T20:04:18.570Z,99381
2018-04-06T20:06:21.754Z,99379
2018-04-06T20:08:25.696Z,99366
2018-04-06T20:10:28.885Z,99364
2018-04-06T20:12:32.829Z,99358
2018-04-06T20:14:36.017Z,99360
2018-04-06T20:16:41.046Z,99353
2018-04-06T20:18:44.225Z,99349
2018-04-06T20:20:47.370Z,99348
2018-04-06T20:22:50.546Z,99342
2018-04-06T20:24:53.717Z,99343
2018-04-06T20:26:57.629Z,99344
2018-04-06T20:29:01.578Z,99345
2018-04-06T20:31:04.726Z,99332
2018-04-06T20:33:07.877Z,99328
2018-04-06T20:35:11.844Z,99328
2018-04-06T20:37:14.997Z,99325
2018-04-06T20:39:18.916Z,99324
2018-04-06T20:41:22.093Z,99320
2018-04-06T20:43:25.270Z,99335
2018-04-06T20:45:28.416Z,99327
2018-04-06T20:47:31.594Z,99318
2018-04-06T20:49:34.779Z,99310
2018-04-06T20:51:39.211Z,99320
2018-04-06T20:53:42.974Z,99311
2018-04-06T20:55:46.147Z,99308
2018-04-06T20:57:49.325Z,99307
2018-04-06T20:59:52.513Z,99298
2018-04-06T21:01:55.689Z,99300
2018-04-06T21:03:58.892Z,99299
2018-04-06T21:06:03.188Z,99296
2018-04-06T21:08:12.665Z,99295
2018-04-06T21:10:16.952Z,99305
2018-04-06T21:12:20.094Z,99289
2018-04-06T21:14:24.409Z,99291
2018-04-06T21:16:27.871Z,99299
2018-04-06T21:18:31.049Z,99288
2018-04-06T21:20:34.997Z,99285
2018-04-06T21:22:40.373Z,99292
2018-04-06T21:24:43.787Z,99290
2018-04-06T21:26:47.521Z,99283
2018-04-06T21:28:50.672Z,99283
2018-04-06T21:30:53.861Z,99282
2018-04-06T21:32:57.048Z,99269
2018-04-06T21:35:00.260Z,99279
2018-04-06T21:37:05.709Z,99275
2018-04-06T21:39:08.888Z,99269
2018-04-06T21:41:12.313Z,99269
2018-04-06T21:43:15.507Z,99262
2018-04-06T21:45:19.449Z,99260
2018-04-06T21:47:22.641Z,99255
2018-04-06T21:49:25.792Z,99254
2018-04-06T21:51:28.969Z,99249
2018-04-06T21:53:32.198Z,99262
2018-04-06T21:55:35.331Z,99254
2018-04-06T21:57:38.798Z,99248
2018-04-06T21:59:41.953Z,99255
2018-04-06T22:01:45.105Z,99246
2018-04-06T22:03:49.054Z,99234
2018-04-06T22:05:52.209Z,99256
2018-04-06T22:07:55.384Z,99238
2018-04-06T22:09:59.462Z,99248
2018-04-06T22:12:03.408Z,99236
2018-04-06T22:14:06.570Z,99237
2018-04-06T22:16:09.746Z,99230
2018-04-06T22:18:13.095Z,99227
2018-04-06T22:20:16.278Z,99236
2018-04-06T22:22:19.478Z,99226
2018-04-06T22:24:22.664Z,99221
2018-04-06T22:26:25.809Z,99220
2018-04-06T22:28:28.990Z,99213
2018-04-06T22:30:32.151Z,99212
2018-04-06T22:32:36.111Z,99207
2018-04-06T22:34:39.447Z,99215
2018-04-06T22:36:42.605Z,99211
2018-04-06T22:38:46.126Z,99211
2018-04-06T22:40:50.040Z,99211
2018-04-06T22:42:53.223Z,99212
2018-04-06T22:44:56.398Z,99204
2018-04-06T22:46:59.564Z,99202
2018-04-06T22:49:02.901Z,99208
2018-04-06T22:51:06.224Z,99208
2018-04-06T22:53:09.373Z,99198
2018-04-06T22:55:12.582Z,99210
2018-04-06T22:57:15.742Z,99196
2018-04-06T22:59:18.892Z,99198
2018-04-06T23:01:22.073Z,99207
2018-04-06T23:03:25.304Z,99207
2018-04-06T23:05:28.464Z,99203
2018-04-06T23:07:32.431Z,99204
2018-04-06T23:09:35.573Z,99201
2018-04-06T23:11:38.754Z,99208
2018-04-06T23:13:41.975Z,99212
2018-04-06T23:15:47.018Z,99214
2018-04-06T23:17:50.252Z,99214
2018-04-06T23:19:53.451Z,99209
2018-04-06T23:21:56.629Z,99218
2018-04-06T23:23:59.779Z,99218
2018-04-06T23:26:02.959Z,99225
2018-04-06T23:28:07.261Z,99223
2018-04-06T23:30:10.437Z,99217
2018-04-06T23:32:14.376Z,99227
2018-04-06T23:34:18.301Z,99222
2018-04-06T23:36:22.249Z,99217
2018-04-06T23:38:25.680Z,99217
2018-04-06T23:40:28.861Z,99213
2018-04-06T23:42:32.045Z,99207
2018-04-06T23:44:35.958Z,99214
2018-04-06T23:46:39.141Z,99221
2018-04-06T23:48:42.324Z,99213
2018-04-06T23:50:45.481Z,99212
2018-04-06T23:52:48.641Z,99208
2018-04-06T23:54:51.823Z,99207
2018-04-06T23:56:55.748Z,99204
2018-04-06T23:58:59.775Z,99207
